createdAt,value
2023-04-05T00:01:08.103Z,12.34
2023-04-05T00:06:13.533Z,12.02
2023-04-05T00:11:17.364Z,12.14
2023-04-05T00:16:20.889Z,12.39
2023-04-05T00:21:24.940Z,12.82
2023-04-05T00:26:28.401Z,12.21
2023-04-05T00:31:31.222Z,12.32
2023-04-05T00:36:35.868Z,11.76
2023-04-05T00:41:38.244Z,12.50
2023-04-05T00:46:40.901Z,11.89
2023-04-05T00:51:44.056Z,11.73
2023-04-05T00:56:46.812Z,12.28
2023-04-05T01:02:13.865Z,12.72
2023-04-05T01:07:41.666Z,12.47
2023-04-05T01:12:44.807Z,12.39
2023-04-05T01:17:47.426Z,12.25
2023-04-05T01:23:01.306Z,12.94
2023-04-05T01:28:24.694Z,12.79
2023-04-05T01:33:50.264Z,12.10
2023-04-05T01:38:56.318Z,11.78
2023-04-05T01:43:58.563Z,12.23
2023-04-05T01:49:00.910Z,12.32
2023-04-05T01:54:03.133Z,12.05
2023-04-05T01:59:05.418Z,12.35
2023-04-05T02:04:07.656Z,11.65
2023-04-05T02:09:10.180Z,12.52
2023-04-05T02:14:12.702Z,11.78
2023-04-05T02:19:16.383Z,12.14
2023-04-05T02:24:18.648Z,12.32
2023-04-05T02:29:21.247Z,12.05
2023-04-05T02:34:23.997Z,12.15
2023-04-05T02:39:26.767Z,12.05
2023-04-05T02:44:29.996Z,11.93
2023-04-05T02:49:32.319Z,12.22
2023-04-05T02:54:34.503Z,11.70
2023-04-05T02:59:38.714Z,12.12
2023-04-05T03:04:41.318Z,11.68
2023-04-05T03:09:44.997Z,11.94
2023-04-05T03:14:47.283Z,11.49
2023-04-05T03:19:49.566Z,11.85
2023-04-05T03:24:52.807Z,11.78
2023-04-05T03:29:55.335Z,12.60
2023-04-05T03:34:57.589Z,11.77
2023-04-05T03:39:59.790Z,11.63
2023-04-05T03:45:01.961Z,12.40
2023-04-05T03:50:05.254Z,12.19
2023-04-05T03:55:08.395Z,11.70
2023-04-05T04:00:18.156Z,11.79
2023-04-05T04:05:22.162Z,12.55
2023-04-05T04:10:24.526Z,11.45
2023-04-05T04:15:26.897Z,12.05
2023-04-05T04:20:29.634Z,11.87
2023-04-05T04:25:31.878Z,11.58
2023-04-05T04:30:35.256Z,12.27
2023-04-05T04:35:40.637Z,11.68
2023-04-05T04:40:51.277Z,11.62
2023-04-05T04:45:55.601Z,11.15
2023-04-05T04:51:00.190Z,10.71
2023-04-05T04:56:06.739Z,10.81
2023-04-05T05:01:12.392Z,11.18
2023-04-05T05:06:18.332Z,11.32
2023-04-05T05:11:21.216Z,11.16
2023-04-05T05:16:23.958Z,12.40
2023-04-05T05:21:27.076Z,11.35
2023-04-05T05:26:29.312Z,11.52
2023-04-05T05:31:33.385Z,10.99
2023-04-05T05:36:36.376Z,11.42
2023-04-05T05:41:38.748Z,11.83
2023-04-05T05:46:41.414Z,11.97
2023-04-05T05:51:44.037Z,12.06
2023-04-05T05:56:46.504Z,12.18
2023-04-05T06:01:51.753Z,12.37
2023-04-05T06:06:55.016Z,12.55
2023-04-05T06:11:57.611Z,12.61
2023-04-05T06:17:00.123Z,12.80
2023-04-05T06:22:02.494Z,12.54
2023-04-05T06:27:05.822Z,13.10
2023-04-05T06:32:08.231Z,12.52
2023-04-05T06:37:10.634Z,12.74
2023-04-05T06:42:14.504Z,12.78
2023-04-05T06:47:16.923Z,13.18
2023-04-05T06:52:19.201Z,13.42
2023-04-05T06:57:21.485Z,13.25
2023-04-05T07:02:23.817Z,13.51
2023-04-05T07:07:26.234Z,14.18
2023-04-05T07:12:46.687Z,13.75
2023-04-05T07:17:49.368Z,14.09
2023-04-05T07:22:51.727Z,13.45
2023-04-05T07:27:54.212Z,13.45
2023-04-05T07:32:56.525Z,13.80
2023-04-05T07:37:58.863Z,13.80
2023-04-05T07:43:01.226Z,14.46
2023-04-05T07:48:03.689Z,14.09
2023-04-05T07:53:06.372Z,13.76
2023-04-05T07:58:10.111Z,14.16
2023-04-05T08:03:12.416Z,14.16
2023-04-05T08:08:14.971Z,14.69
2023-04-05T08:13:17.693Z,14.64
2023-04-05T08:18:20.024Z,14.62
2023-04-05T08:23:22.872Z,15.28
2023-04-05T08:28:25.163Z,15.42
2023-04-05T08:33:28.885Z,15.44
2023-04-05T08:38:31.288Z,15.05
2023-04-05T08:43:48.959Z,15.94
2023-04-05T08:48:51.442Z,15.99
2023-04-05T08:53:54.285Z,15.09
2023-04-05T08:59:06.368Z,15.80
2023-04-05T09:04:14.862Z,16.02
2023-04-05T09:09:18.070Z,16.17
2023-04-05T09:14:21.697Z,15.88
2023-04-05T09:19:24.119Z,15.81
2023-04-05T09:24:37.406Z,16.62
2023-04-05T09:29:42.205Z,16.19
2023-04-05T09:34:45.193Z,16.62
2023-04-05T09:39:51.167Z,16.41
2023-04-05T09:44:58.164Z,16.40
2023-04-05T09:50:06.901Z,15.36
2023-04-05T09:55:10.477Z,15.67
2023-04-05T10:00:21.059Z,16.30
2023-04-05T10:05:28.518Z,16.49
2023-04-05T10:10:36.378Z,16.44
2023-04-05T10:15:38.604Z,16.19
2023-04-05T10:20:43.453Z,15.98
2023-04-05T10:25:54.780Z,16.56
2023-04-05T10:31:30.555Z,16.46
2023-04-05T10:37:00.207Z,16.43
2023-04-05T10:42:20.033Z,16.58
2023-04-05T10:47:25.048Z,16.58
2023-04-05T10:52:29.084Z,16.60
2023-04-05T10:57:32.841Z,17.04
2023-04-05T11:02:35.025Z,17.15
2023-04-05T11:07:50.001Z,17.69
2023-04-05T11:12:57.597Z,17.69
2023-04-05T11:18:07.010Z,17.38
2023-04-05T11:23:10.532Z,17.08
2023-04-05T11:28:30.425Z,16.95
2023-04-05T11:33:40.251Z,16.44
2023-04-05T11:38:45.838Z,16.63
2023-04-05T11:43:48.482Z,17.01
2023-04-05T11:48:51.472Z,17.66
2023-04-05T11:53:53.600Z,17.75
2023-04-05T11:58:59.605Z,17.95
2023-04-05T12:04:01.964Z,18.14
2023-04-05T12:09:07.934Z,18.00
2023-04-05T12:14:10.130Z,17.64
2023-04-05T12:19:12.317Z,18.14
2023-04-05T12:24:14.805Z,17.71
2023-04-05T12:29:17.829Z,17.99
2023-04-05T12:34:27.847Z,17.74
2023-04-05T12:39:31.938Z,17.86
2023-04-05T12:44:35.800Z,18.31
2023-04-05T12:49:39.128Z,18.55
2023-04-05T12:54:41.317Z,17.78
2023-04-05T12:59:43.464Z,17.55
2023-04-05T13:04:45.794Z,17.49
2023-04-05T13:09:48.050Z,17.35
2023-04-05T13:14:50.496Z,17.51
2023-04-05T13:19:52.682Z,16.99
2023-04-05T13:24:54.907Z,17.67
2023-04-05T13:29:57.170Z,17.61
2023-04-05T13:34:59.328Z,17.46
2023-04-05T13:40:02.092Z,17.15
2023-04-05T13:45:05.455Z,17.22
2023-04-05T13:50:08.270Z,17.77
2023-04-05T13:55:11.044Z,17.87
2023-04-05T14:00:14.081Z,17.70
2023-04-05T14:05:17.610Z,17.68
2023-04-05T14:10:21.899Z,17.87
2023-04-05T14:15:24.173Z,17.69
2023-04-05T14:20:26.456Z,18.13
2023-04-05T14:25:28.696Z,18.07
2023-04-05T14:30:31.591Z,18.14
2023-04-05T14:35:34.278Z,18.01
2023-04-05T14:40:36.572Z,18.32
2023-04-05T14:45:39.061Z,18.42
2023-04-05T14:50:41.565Z,18.48
2023-04-05T14:55:43.896Z,18.59
2023-04-05T15:00:47.647Z,18.55
2023-04-05T15:05:49.936Z,18.34
2023-04-05T15:10:52.592Z,18.11
2023-04-05T15:15:54.892Z,18.24
2023-04-05T15:20:57.718Z,18.21
2023-04-05T15:25:59.967Z,18.09
2023-04-05T15:31:02.361Z,18.06
2023-04-05T15:36:05.170Z,18.07
2023-04-05T15:41:08.841Z,18.19
2023-04-05T15:46:11.457Z,18.03
2023-04-05T15:51:13.902Z,17.83
2023-04-05T15:56:16.431Z,17.79
2023-04-05T16:01:18.882Z,17.58
2023-04-05T16:06:25.193Z,17.60
2023-04-05T16:11:27.690Z,17.50
2023-04-05T16:16:38.597Z,17.37
2023-04-05T16:21:48.159Z,18.45
2023-04-05T16:26:50.574Z,20.66
2023-04-05T16:31:53.575Z,20.13
2023-04-05T16:36:55.899Z,19.36
2023-04-05T16:41:58.137Z,18.50
2023-04-05T16:47:00.296Z,17.14
2023-04-05T16:52:02.531Z,16.40
2023-04-05T16:57:04.880Z,16.65
2023-04-05T17:02:07.839Z,16.66
2023-04-05T17:07:10.091Z,16.50
2023-04-05T17:12:12.540Z,16.30
2023-04-05T17:17:15.024Z,16.05
2023-04-05T17:22:17.431Z,15.47
2023-04-05T17:27:19.553Z,15.61
2023-04-05T17:32:21.905Z,15.82
2023-04-05T17:37:24.318Z,15.77
2023-04-05T17:42:26.428Z,15.53
2023-04-05T17:47:28.655Z,15.34
2023-04-05T17:52:31.672Z,15.45
2023-04-05T17:57:33.855Z,15.36
2023-04-05T18:02:37.796Z,15.43
2023-04-05T18:07:40.494Z,15.18
2023-04-05T18:12:42.883Z,15.33
2023-04-05T18:17:46.021Z,15.10
2023-04-05T18:22:48.185Z,14.80
2023-04-05T18:27:50.489Z,14.61
2023-04-05T18:32:52.701Z,14.78
2023-04-05T18:37:54.914Z,14.80
2023-04-05T18:42:57.067Z,14.85
2023-04-05T18:48:01.011Z,14.73
2023-04-05T18:53:03.326Z,14.60
2023-04-05T18:58:05.863Z,14.66
2023-04-05T19:03:08.209Z,14.46
2023-04-05T19:08:10.552Z,14.73
2023-04-05T19:13:12.715Z,14.67
2023-04-05T19:18:14.920Z,14.42
2023-04-05T19:23:17.048Z,14.34
2023-04-05T19:28:19.251Z,14.35
2023-04-05T19:33:21.902Z,14.48
2023-04-05T19:38:24.523Z,14.47
2023-04-05T19:43:27.504Z,14.49
2023-04-05T19:48:41.183Z,14.49
2023-04-05T19:53:49.593Z,14.49
2023-04-05T19:59:04.460Z,14.29
2023-04-05T20:04:20.143Z,14.20
2023-04-05T20:09:25.159Z,14.14
2023-04-05T20:14:41.309Z,14.10
2023-04-05T20:20:01.153Z,14.22
2023-04-05T20:25:32.093Z,14.10
2023-04-05T20:30:34.548Z,14.15
2023-04-05T20:35:37.955Z,13.96
2023-04-05T20:40:40.189Z,13.85
2023-04-05T20:45:42.316Z,14.13
2023-04-05T20:50:44.469Z,13.90
2023-04-05T20:55:48.589Z,13.99
2023-04-05T21:00:51.008Z,13.51
2023-04-05T21:05:53.367Z,13.56
2023-04-05T21:10:56.224Z,13.76
2023-04-05T21:15:59.238Z,13.91
2023-04-05T21:21:01.686Z,13.75
2023-04-05T21:26:04.810Z,13.60
2023-04-05T21:31:07.342Z,13.74
2023-04-05T21:36:09.651Z,13.65
2023-04-05T21:41:11.880Z,13.76
2023-04-05T21:46:14.183Z,13.80
2023-04-05T21:51:16.389Z,13.56
2023-04-05T21:56:19.448Z,13.67
2023-04-05T22:01:22.221Z,13.50
2023-04-05T22:06:24.645Z,13.60
2023-04-05T22:11:27.122Z,13.49
2023-04-05T22:16:29.699Z,13.24
2023-04-05T22:21:32.009Z,13.34
2023-04-05T22:26:34.269Z,13.40
2023-04-05T22:31:36.969Z,13.45
2023-04-05T22:36:39.162Z,13.29
2023-04-05T22:41:41.703Z,13.50
2023-04-05T22:46:44.008Z,13.46
2023-04-05T22:51:46.247Z,13.55
2023-04-05T22:56:48.442Z,13.69
2023-04-05T23:01:50.809Z,13.74
2023-04-05T23:06:53.086Z,13.47
2023-04-05T23:11:55.357Z,13.45
2023-04-05T23:16:57.632Z,13.62
2023-04-05T23:21:59.962Z,13.60
2023-04-05T23:27:02.392Z,13.62
2023-04-05T23:32:06.380Z,13.65
2023-04-05T23:37:08.540Z,13.21
2023-04-05T23:42:11.438Z,13.36
2023-04-05T23:47:13.684Z,13.57
2023-04-05T23:52:15.941Z,13.53
2023-04-05T23:57:18.067Z,13.33
